Time;durP1;ratioP1;P1;durP2;ratioP2;P2;SDS_P1;SDS_P2;PMS_P1;PMS_P2;Temp;Humidity;BMP_temperature;BMP_pressure;BME280_temperature;BME280_humidity;BME280_pressure;Samples;Min_cycle;Max_cycle;Signal;HPM_P1;HPM_P2
2022/10/18 00:02:07;;;;;;;4.57;4.17;;;18.90;99.90;;;;;;5018721;28;20216;-75
2022/10/18 00:04:33;;;;;;;4.90;4.20;;;18.90;99.90;;;;;;5018335;28;20212;-74
2022/10/18 00:06:59;;;;;;;3.97;3.57;;;18.80;99.90;;;;;;4999275;28;20323;-74
2022/10/18 00:09:26;;;;;;;4.17;3.77;;;18.80;99.90;;;;;;4999853;28;20231;-74
2022/10/18 00:11:52;;;;;;;7.07;4.20;;;18.80;99.90;;;;;;5012912;28;20279;-74
2022/10/18 00:14:18;;;;;;;5.77;4.27;;;18.80;99.90;;;;;;4995669;28;20502;-74
2022/10/18 00:16:44;;;;;;;5.27;4.50;;;18.80;99.90;;;;;;5013388;28;20468;-74
2022/10/18 00:19:10;;;;;;;7.67;4.50;;;18.80;99.90;;;;;;5017643;28;21237;-74
2022/10/18 00:21:35;;;;;;;4.77;4.30;;;18.80;99.90;;;;;;5020706;28;20222;-75
2022/10/18 00:24:02;;;;;;;5.00;4.50;;;18.80;99.90;;;;;;5019477;28;20231;-74
2022/10/18 00:26:29;;;;;;;6.00;4.30;;;18.80;99.90;;;;;;5019220;28;20312;-74
2022/10/18 00:28:57;;;;;;;5.00;4.20;;;18.80;99.90;;;;;;5034295;28;20470;-74
2022/10/18 00:31:30;;;;;;;4.77;4.10;;;18.80;99.90;;;;;;5000159;28;20480;-73
2022/10/18 00:33:57;;;;;;;7.53;4.83;;;18.80;99.90;;;;;;5019451;28;20469;-74
2022/10/18 00:36:24;;;;;;;6.17;4.90;;;18.80;99.90;;;;;;4997346;28;20461;-74
2022/10/18 00:38:51;;;;;;;9.43;4.13;;;18.80;99.90;;;;;;5042571;28;20460;-74
2022/10/18 00:41:20;;;;;;;6.03;4.00;;;18.80;99.90;;;;;;5014632;28;20454;-74
2022/10/18 00:43:52;;;;;;;4.63;3.90;;;18.80;99.90;;;;;;5020115;28;20454;-74
2022/10/18 00:46:17;;;;;;;4.63;4.23;;;18.80;99.90;;;;;;5012044;28;20467;-73
2022/10/18 00:48:43;;;;;;;6.13;4.17;;;18.80;99.90;;;;;;5013948;28;20525;-74
2022/10/18 00:51:09;;;;;;;7.17;5.20;;;18.70;99.90;;;;;;5016322;28;20250;-74
2022/10/18 00:53:35;;;;;;;7.33;5.37;;;18.70;99.90;;;;;;5022495;28;20215;-74
2022/10/18 00:56:01;;;;;;;7.67;5.33;;;18.70;99.90;;;;;;5016274;28;20938;-74
2022/10/18 00:58:27;;;;;;;8.03;5.00;;;18.70;99.90;;;;;;4999979;28;20483;-74
2022/10/18 01:00:53;;;;;;;9.43;6.00;;;18.70;99.90;;;;;;5015580;28;20266;-74
2022/10/18 01:03:18;;;;;;;8.10;5.10;;;18.60;99.90;;;;;;5018981;28;20459;-74
2022/10/18 01:05:46;;;;;;;5.83;4.33;;;18.60;99.90;;;;;;5017219;28;20224;-74
2022/10/18 01:08:47;;;;;;;5.60;5.10;;;18.60;99.90;;;;;;5012184;28;20221;-74
2022/10/18 01:11:53;;;;;;;6.00;5.07;;;18.60;99.90;;;;;;5009950;28;20533;-74
2022/10/18 01:14:48;;;;;;;5.50;4.87;;;18.60;99.90;;;;;;5006959;28;20483;-74
2022/10/18 01:17:43;;;;;;;5.60;4.63;;;18.50;99.90;;;;;;5011844;28;20452;-74
2022/10/18 01:20:17;;;;;;;7.00;4.27;;;18.50;99.90;;;;;;5009816;28;20467;-74
2022/10/18 01:22:58;;;;;;;6.63;4.93;;;18.60;99.90;;;;;;5027377;28;20519;-74
2022/10/18 01:25:42;;;;;;;9.07;6.23;;;18.60;99.90;;;;;;5026224;28;21007;-74
2022/10/18 01:28:22;;;;;;;14.37;5.50;;;18.60;99.90;;;;;;5018059;28;20504;-74
2022/10/18 01:31:13;;;;;;;9.77;6.00;;;18.60;99.90;;;;;;5012123;28;20472;-74
2022/10/18 01:33:49;;;;;;;7.80;5.20;;;18.60;99.90;;;;;;4997686;28;20471;-74
2022/10/18 01:36:24;;;;;;;5.37;4.87;;;18.50;99.90;;;;;;5014359;28;20525;-73
2022/10/18 01:38:53;;;;;;;6.40;4.80;;;18.50;99.90;;;;;;5017986;28;20462;-74
2022/10/18 01:41:21;;;;;;;7.17;5.60;;;18.50;99.90;;;;;;4997078;28;20818;-74
2022/10/18 01:43:50;;;;;;;5.90;5.30;;;18.50;99.90;;;;;;5008201;28;20460;-74
2022/10/18 01:46:20;;;;;;;8.13;4.90;;;18.50;99.90;;;;;;5010256;28;20455;-74
2022/10/18 01:48:46;;;;;;;5.70;5.10;;;18.50;99.90;;;;;;5014626;28;20967;-74
2022/10/18 01:51:12;;;;;;;8.23;6.23;;;18.50;99.90;;;;;;5014467;28;20478;-73
2022/10/18 01:53:37;;;;;;;6.07;4.83;;;18.50;99.90;;;;;;5011561;28;20464;-74
2022/10/18 01:56:17;;;;;;;9.17;6.20;;;18.50;99.90;;;;;;5012251;28;20696;-74
2022/10/18 01:58:54;;;;;;;7.00;5.90;;;18.50;99.90;;;;;;5029601;28;20247;-74
2022/10/18 02:01:46;;;;;;;6.97;6.00;;;18.50;99.90;;;;;;4991654;28;20456;-74
2022/10/18 02:04:44;;;;;;;9.63;6.43;;;18.50;99.90;;;;;;5008876;28;21195;-74
2022/10/18 02:07:28;;;;;;;7.10;6.30;;;18.50;99.90;;;;;;5013968;28;20476;-74
2022/10/18 02:10:23;;;;;;;8.83;6.40;;;18.50;99.90;;;;;;5010708;28;20502;-74
2022/10/18 02:12:51;;;;;;;8.70;5.97;;;18.40;99.90;;;;;;5001863;28;20463;-74
2022/10/18 02:15:21;;;;;;;10.03;5.37;;;18.50;99.90;;;;;;5012136;28;20465;-74
2022/10/18 02:17:46;;;;;;;6.20;5.03;;;18.50;99.90;;;;;;5004062;28;20469;-74
2022/10/18 02:20:15;;;;;;;9.73;5.50;;;18.50;99.90;;;;;;4995504;28;20426;-74
2022/10/18 02:22:44;;;;;;;11.23;6.77;;;18.40;99.90;;;;;;5014168;28;20763;-74
2022/10/18 02:25:15;;;;;;;9.40;6.03;;;18.40;99.90;;;;;;5030818;28;20463;-74
2022/10/18 02:27:41;;;;;;;7.07;6.40;;;18.40;99.90;;;;;;5031742;28;20533;-74
2022/10/18 02:30:08;;;;;;;10.57;7.00;;;18.40;99.90;;;;;;4996740;28;20964;-74
2022/10/18 02:32:39;;;;;;;9.57;5.60;;;18.30;99.90;;;;;;5029525;28;20221;-74
2022/10/18 02:35:16;;;;;;;7.70;6.00;;;18.30;99.90;;;;;;5023020;28;20504;-74
2022/10/18 02:37:44;;;;;;;10.67;5.73;;;18.30;99.90;;;;;;5013061;28;20470;-74
2022/10/18 02:40:10;;;;;;;6.90;4.33;;;18.20;99.90;;;;;;5009574;28;20545;-74
2022/10/18 02:42:39;;;;;;;3.73;3.33;;;18.20;99.90;;;;;;4995696;28;20471;-74
2022/10/18 02:45:05;;;;;;;3.60;2.27;;;18.10;99.90;;;;;;5033525;28;20518;-73
2022/10/18 02:47:31;;;;;;;3.10;2.00;;;18.10;99.90;;;;;;5011785;28;20467;-74
2022/10/18 02:49:57;;;;;;;2.40;2.20;;;18.00;99.90;;;;;;5015878;28;20833;-74
2022/10/18 02:52:23;;;;;;;2.57;1.90;;;17.90;99.90;;;;;;4995384;28;20452;-74
2022/10/18 02:54:48;;;;;;;2.03;1.30;;;17.90;99.90;;;;;;5016954;28;20681;-74
2022/10/18 02:57:14;;;;;;;1.07;1.03;;;17.80;99.90;;;;;;5013381;28;20294;-74
2022/10/18 02:59:40;;;;;;;0.73;0.73;;;17.80;99.90;;;;;;5015412;28;20693;-73
2022/10/18 03:02:05;;;;;;;1.10;1.00;;;17.70;99.90;;;;;;5002697;28;20689;-74
2022/10/18 03:04:31;;;;;;;1.40;1.03;;;17.70;99.90;;;;;;5003896;28;20766;-74
2022/10/18 03:06:57;;;;;;;1.60;0.90;;;17.70;99.90;;;;;;5019655;28;20224;-74
2022/10/18 03:09:22;;;;;;;0.97;0.97;;;17.80;99.90;;;;;;5022049;28;20713;-74
2022/10/18 03:11:48;;;;;;;1.20;1.00;;;17.80;99.90;;;;;;5014280;28;20279;-75
2022/10/18 03:14:14;;;;;;;1.40;1.00;;;17.80;99.90;;;;;;5018643;28;20217;-74
2022/10/18 03:16:39;;;;;;;1.63;1.10;;;17.90;99.90;;;;;;4996441;28;20740;-74
2022/10/18 03:19:05;;;;;;;1.67;0.90;;;17.90;99.90;;;;;;5010292;28;20704;-74
2022/10/18 03:21:31;;;;;;;1.23;0.93;;;17.90;99.90;;;;;;5016751;28;20277;-74
2022/10/18 03:23:58;;;;;;;0.80;0.80;;;17.90;99.90;;;;;;5031543;28;20583;-73
2022/10/18 03:26:24;;;;;;;2.47;0.80;;;17.90;99.90;;;;;;5035422;28;20224;-73
2022/10/18 03:28:50;;;;;;;0.70;0.70;;;17.90;99.90;;;;;;5016345;28;20467;-73
2022/10/18 03:31:16;;;;;;;0.80;0.80;;;17.90;99.90;;;;;;5016893;28;20511;-74
2022/10/18 03:33:41;;;;;;;2.00;0.80;;;17.90;99.90;;;;;;5017160;28;20216;-74
2022/10/18 03:36:07;;;;;;;1.53;0.80;;;17.90;99.90;;;;;;5002482;28;20715;-73
2022/10/18 03:38:33;;;;;;;2.30;1.27;;;17.80;99.90;;;;;;4983022;28;20251;-74
2022/10/18 03:40:59;;;;;;;2.20;1.80;;;17.80;99.90;;;;;;5017172;28;20216;-74
2022/10/18 03:43:24;;;;;;;3.33;1.30;;;17.70;99.90;;;;;;5021282;28;20701;-74
2022/10/18 03:45:50;;;;;;;2.60;1.83;;;17.70;99.90;;;;;;5034131;28;20713;-74
2022/10/18 03:48:16;;;;;;;2.30;1.10;;;17.70;99.90;;;;;;5002284;28;20216;-73
2022/10/18 03:50:42;;;;;;;3.10;1.97;;;17.70;99.90;;;;;;5002417;28;20684;-74
2022/10/18 03:53:08;;;;;;;1.23;0.80;;;17.70;99.90;;;;;;5000222;28;20893;-73
2022/10/18 03:55:35;;;;;;;0.90;0.80;;;17.70;99.90;;;;;;5016170;28;20475;-72
2022/10/18 03:58:01;;;;;;;1.67;0.83;;;17.70;99.90;;;;;;4996521;28;20221;-71
2022/10/18 04:00:27;;;;;;;0.70;0.60;;;17.70;99.90;;;;;;5033450;28;20517;-74
2022/10/18 04:02:53;;;;;;;1.80;1.63;;;17.70;99.90;;;;;;5007230;28;20685;-74
2022/10/18 04:05:19;;;;;;;1.73;0.93;;;17.70;99.90;;;;;;4996566;28;20513;-74
2022/10/18 04:07:45;;;;;;;1.43;0.90;;;17.70;99.90;;;;;;5016448;28;20208;-73
2022/10/18 04:10:11;;;;;;;1.43;0.80;;;17.80;99.90;;;;;;5015454;28;20984;-73
2022/10/18 04:12:37;;;;;;;1.13;0.80;;;17.80;99.90;;;;;;5018961;28;20466;-74
2022/10/18 04:15:03;;;;;;;1.00;0.87;;;17.80;99.90;;;;;;4998227;28;20584;-74
2022/10/18 04:17:29;;;;;;;1.60;0.70;;;17.70;99.90;;;;;;5015194;28;20506;-73
2022/10/18 04:19:55;;;;;;;0.97;0.80;;;17.80;99.90;;;;;;5019841;28;20514;-73
2022/10/18 04:22:20;;;;;;;0.97;0.73;;;17.70;99.90;;;;;;4998451;28;20216;-73
2022/10/18 04:24:46;;;;;;;1.60;0.87;;;17.70;99.90;;;;;;5000769;28;20223;-74
2022/10/18 04:27:12;;;;;;;0.90;0.80;;;17.70;99.90;;;;;;5000134;28;20235;-73
2022/10/18 04:29:38;;;;;;;1.70;0.80;;;17.70;99.90;;;;;;5001919;28;20641;-73
2022/10/18 04:32:03;;;;;;;2.40;0.80;;;17.70;99.90;;;;;;5012174;28;20296;-73
2022/10/18 04:34:29;;;;;;;0.90;0.70;;;17.70;99.90;;;;;;5012703;28;20213;-73
2022/10/18 04:36:55;;;;;;;2.60;1.00;;;17.70;99.90;;;;;;5001646;28;20217;-74
2022/10/18 04:39:20;;;;;;;1.27;0.80;;;17.70;99.90;;;;;;5015720;28;20267;-71
2022/10/18 04:41:46;;;;;;;2.30;0.80;;;17.70;99.90;;;;;;5013549;28;20212;-73
2022/10/18 04:44:12;;;;;;;2.97;0.90;;;17.70;99.90;;;;;;5000404;28;20315;-73
2022/10/18 04:46:37;;;;;;;1.90;0.87;;;17.70;99.90;;;;;;5021545;28;20224;-73
2022/10/18 04:49:03;;;;;;;2.00;0.80;;;17.70;99.90;;;;;;5001806;28;20226;-72
2022/10/18 04:51:29;;;;;;;1.57;0.70;;;17.70;99.90;;;;;;5011706;28;20687;-73
2022/10/18 04:53:55;;;;;;;2.20;0.80;;;17.70;99.90;;;;;;5014383;28;20208;-71
2022/10/18 04:56:21;;;;;;;1.43;0.90;;;17.70;99.90;;;;;;4999520;28;20506;-72
2022/10/18 04:58:47;;;;;;;1.30;0.90;;;17.70;99.90;;;;;;5001222;28;20469;-73
2022/10/18 05:01:13;;;;;;;0.90;0.83;;;17.70;99.90;;;;;;5033903;28;20459;-73
2022/10/18 05:03:39;;;;;;;3.17;1.27;;;17.70;99.90;;;;;;5004819;28;20212;-74
2022/10/18 05:06:05;;;;;;;0.90;0.90;;;17.70;99.90;;;;;;5018881;28;20262;-73
2022/10/18 05:08:33;;;;;;;2.50;1.07;;;17.70;99.90;;;;;;5034459;28;20217;-73
2022/10/18 05:10:59;;;;;;;2.60;1.20;;;17.70;99.90;;;;;;5011928;28;20460;-73
2022/10/18 05:13:24;;;;;;;1.10;0.90;;;17.70;99.90;;;;;;5016226;28;20530;-72
2022/10/18 05:15:50;;;;;;;1.20;0.87;;;17.70;99.90;;;;;;5018984;28;20502;-73
2022/10/18 05:18:16;;;;;;;3.43;1.10;;;17.60;99.90;;;;;;5020442;28;20307;-72
2022/10/18 05:20:42;;;;;;;2.53;1.20;;;17.60;99.90;;;;;;5021841;28;20466;-72
2022/10/18 05:23:09;;;;;;;1.90;1.77;;;17.60;99.90;;;;;;5022134;28;20216;-74
2022/10/18 05:25:39;;;;;;;2.07;1.30;;;17.60;99.90;;;;;;5023299;28;20273;-73
2022/10/18 05:28:05;;;;;;;1.20;0.70;;;17.60;99.90;;;;;;5017664;28;20454;-74
2022/10/18 05:30:31;;;;;;;2.30;0.80;;;17.60;99.90;;;;;;5014403;28;20451;-73
2022/10/18 05:32:57;;;;;;;0.50;0.50;;;17.50;99.90;;;;;;5007743;28;20293;-74
2022/10/18 05:35:22;;;;;;;0.83;0.67;;;17.50;99.90;;;;;;5001145;28;20224;-73
2022/10/18 05:37:48;;;;;;;1.27;1.07;;;17.50;99.90;;;;;;5020633;28;20219;-74
2022/10/18 05:40:14;;;;;;;0.77;0.70;;;17.50;99.90;;;;;;5032244;28;20215;-73
2022/10/18 05:42:39;;;;;;;1.63;0.80;;;17.50;99.90;;;;;;5016106;28;20705;-73
2022/10/18 05:45:06;;;;;;;1.43;0.80;;;17.50;99.90;;;;;;5003212;28;20240;-74
2022/10/18 05:47:31;;;;;;;0.87;0.60;;;17.50;99.90;;;;;;4998083;28;20230;-73
2022/10/18 05:49:57;;;;;;;0.90;0.80;;;17.50;99.90;;;;;;5018559;28;20451;-72
2022/10/18 05:52:22;;;;;;;0.60;0.57;;;17.60;99.90;;;;;;5002510;28;20254;-73
2022/10/18 05:54:48;;;;;;;0.90;0.53;;;17.50;99.90;;;;;;5015273;28;20262;-74
2022/10/18 05:57:14;;;;;;;1.00;0.80;;;17.50;99.90;;;;;;5013780;28;20223;-73
2022/10/18 05:59:40;;;;;;;2.30;1.07;;;17.40;99.90;;;;;;5041328;28;20210;-73
2022/10/18 06:02:05;;;;;;;0.90;0.80;;;17.40;99.90;;;;;;5019254;28;20208;-73
2022/10/18 06:04:31;;;;;;;0.67;0.60;;;17.40;99.90;;;;;;5007128;28;20529;-73
2022/10/18 06:06:57;;;;;;;0.70;0.60;;;17.40;99.90;;;;;;5001709;28;20307;-73
2022/10/18 06:09:22;;;;;;;1.27;0.90;;;17.40;99.90;;;;;;5001499;28;20290;-73
2022/10/18 06:11:48;;;;;;;1.07;0.63;;;17.40;99.90;;;;;;4995358;28;20681;-73
2022/10/18 06:14:14;;;;;;;0.60;0.60;;;17.40;99.90;;;;;;5004072;28;20231;-74
2022/10/18 06:16:39;;;;;;;0.80;0.80;;;17.40;99.90;;;;;;5018018;28;20299;-71
2022/10/18 06:19:05;;;;;;;1.57;0.60;;;17.40;99.90;;;;;;5013188;28;20615;-73
2022/10/18 06:21:31;;;;;;;0.60;0.60;;;17.40;99.90;;;;;;5001386;28;20227;-74
2022/10/18 06:23:57;;;;;;;2.87;0.90;;;17.40;99.90;;;;;;5043897;28;20265;-74
2022/10/18 06:26:24;;;;;;;0.70;0.70;;;17.40;99.90;;;;;;5021983;28;20250;-74
2022/10/18 06:28:50;;;;;;;1.93;1.27;;;17.40;99.90;;;;;;5001425;28;20459;-74
2022/10/18 06:31:16;;;;;;;2.20;1.40;;;17.40;99.90;;;;;;5022465;28;20826;-74
2022/10/18 06:33:42;;;;;;;1.40;1.30;;;17.40;99.90;;;;;;5021176;28;20268;-74
2022/10/18 06:36:14;;;;;;;2.17;1.40;;;17.40;99.90;;;;;;4994095;28;20444;-74
2022/10/18 06:38:40;;;;;;;1.40;1.30;;;17.40;99.90;;;;;;5018705;28;20224;-75
2022/10/18 06:41:07;;;;;;;1.63;1.53;;;17.40;99.90;;;;;;5017459;28;20459;-73
2022/10/18 06:43:33;;;;;;;1.97;1.77;;;17.40;99.90;;;;;;5015991;28;20712;-74
2022/10/18 06:46:05;;;;;;;6.63;1.80;;;17.40;99.90;;;;;;5000149;28;20485;-76
2022/10/18 06:48:31;;;;;;;1.53;1.43;;;17.40;99.90;;;;;;4982007;28;20551;-74
2022/10/18 06:50:59;;;;;;;1.90;1.70;;;17.40;99.90;;;;;;5019894;28;20456;-73
2022/10/18 06:53:30;;;;;;;2.47;1.30;;;17.40;99.90;;;;;;5008367;28;20970;-72
2022/10/18 06:56:00;;;;;;;1.87;1.30;;;17.40;99.90;;;;;;5017149;28;20456;-73
2022/10/18 06:58:26;;;;;;;1.83;1.40;;;17.40;99.90;;;;;;5017870;28;20458;-73
2022/10/18 07:00:52;;;;;;;1.00;0.90;;;17.40;99.90;;;;;;5002861;28;20887;-72
2022/10/18 07:03:18;;;;;;;1.80;1.10;;;17.40;99.90;;;;;;5013354;28;20438;-75
2022/10/18 07:05:43;;;;;;;1.10;1.00;;;17.40;99.90;;;;;;5023534;28;20637;-73
2022/10/18 07:08:09;;;;;;;1.57;1.17;;;17.40;99.90;;;;;;5000014;28;20204;-72
2022/10/18 07:10:35;;;;;;;1.63;1.03;;;17.40;99.90;;;;;;5003025;28;20209;-74
2022/10/18 07:13:00;;;;;;;1.63;1.20;;;17.40;99.90;;;;;;5016886;28;20227;-73
2022/10/18 07:15:26;;;;;;;0.80;0.80;;;17.40;99.90;;;;;;5015647;28;20224;-72
2022/10/18 07:17:52;;;;;;;1.57;0.97;;;17.40;99.90;;;;;;5029075;28;20217;-73
2022/10/18 07:20:17;;;;;;;0.83;0.70;;;17.40;99.90;;;;;;5033831;28;20681;-74
2022/10/18 07:22:43;;;;;;;1.90;1.00;;;17.40;99.90;;;;;;5003348;28;20208;-73
2022/10/18 07:25:08;;;;;;;2.60;0.80;;;17.40;99.90;;;;;;5000547;28;20299;-73
2022/10/18 07:27:40;;;;;;;1.33;0.80;;;17.40;99.90;;;;;;5025606;28;20578;-74
2022/10/18 07:30:07;;;;;;;0.73;0.70;;;17.40;99.90;;;;;;5017476;28;20332;-72
2022/10/18 07:32:33;;;;;;;1.63;0.80;;;17.40;99.90;;;;;;5006984;28;20513;-73
2022/10/18 07:35:00;;;;;;;0.90;0.90;;;17.40;99.90;;;;;;5003842;28;20531;-72
2022/10/18 07:37:25;;;;;;;1.70;0.90;;;17.40;99.90;;;;;;5010681;28;20235;-74
2022/10/18 07:39:51;;;;;;;2.10;1.30;;;17.50;99.90;;;;;;5014320;28;20510;-73
2022/10/18 07:42:17;;;;;;;3.70;1.83;;;17.50;99.90;;;;;;5013881;28;20208;-73
2022/10/18 07:44:42;;;;;;;1.47;1.13;;;17.50;99.90;;;;;;5001333;28;20755;-72
2022/10/18 07:47:08;;;;;;;1.13;1.07;;;17.50;99.90;;;;;;5021907;28;20247;-73
2022/10/18 07:49:33;;;;;;;1.00;0.90;;;17.50;99.90;;;;;;5016084;28;20221;-73
2022/10/18 07:51:59;;;;;;;1.40;1.03;;;17.50;99.90;;;;;;5001508;28;20216;-72
2022/10/18 07:54:25;;;;;;;1.10;1.00;;;17.50;99.90;;;;;;5024894;28;20704;-74
2022/10/18 07:56:50;;;;;;;0.93;0.93;;;17.50;99.90;;;;;;5017678;28;20224;-73
2022/10/18 07:59:16;;;;;;;1.00;1.00;;;17.50;99.90;;;;;;5016613;28;20284;-72
2022/10/18 08:01:42;;;;;;;3.40;1.60;;;17.50;99.90;;;;;;5015929;28;20302;-73
2022/10/18 08:04:07;;;;;;;1.40;0.83;;;17.50;99.90;;;;;;5019540;28;20220;-73
2022/10/18 08:06:33;;;;;;;1.83;1.40;;;17.50;99.90;;;;;;5020271;28;20220;-73
2022/10/18 08:08:59;;;;;;;1.50;1.00;;;17.50;99.90;;;;;;5013397;28;20228;-75
2022/10/18 08:11:25;;;;;;;1.10;0.83;;;17.60;99.90;;;;;;4998400;28;20313;-73
2022/10/18 08:13:51;;;;;;;0.80;0.70;;;17.60;99.90;;;;;;5014828;28;20236;-74
2022/10/18 08:16:23;;;;;;;1.20;0.90;;;17.60;99.90;;;;;;5016327;28;20220;-73
2022/10/18 08:18:49;;;;;;;1.03;0.80;;;17.60;99.90;;;;;;5005191;28;20898;-74
2022/10/18 08:21:16;;;;;;;0.80;0.80;;;17.60;99.90;;;;;;4998747;28;20578;-73
2022/10/18 08:23:43;;;;;;;1.43;1.30;;;17.60;99.90;;;;;;5021316;28;20461;-74
2022/10/18 08:26:14;;;;;;;0.87;0.87;;;17.60;99.90;;;;;;5016547;28;20999;-73
2022/10/18 08:28:40;;;;;;;0.90;0.90;;;17.60;99.90;;;;;;5017279;28;20470;-74
2022/10/18 08:31:09;;;;;;;0.90;0.90;;;17.60;99.90;;;;;;5021962;28;20450;-74
2022/10/18 08:33:35;;;;;;;1.00;0.80;;;17.70;99.90;;;;;;5015587;28;20444;-74
2022/10/18 08:36:06;;;;;;;0.93;0.90;;;17.70;99.90;;;;;;5022166;28;20955;-73
2022/10/18 08:38:33;;;;;;;0.80;0.80;;;17.70;99.90;;;;;;4995162;28;20221;-74
2022/10/18 08:41:30;;;;;;;2.03;0.90;;;17.70;99.90;;;;;;5019228;28;20482;-72
2022/10/18 08:44:13;;;;;;;0.80;0.80;;;17.70;99.90;;;;;;5023740;28;20462;-73
2022/10/18 08:46:43;;;;;;;0.93;0.90;;;17.70;99.90;;;;;;4999409;28;20499;-73
2022/10/18 08:49:37;;;;;;;0.97;0.70;;;17.70;99.90;;;;;;5002244;28;20446;-73
2022/10/18 08:52:13;;;;;;;0.87;0.80;;;17.80;99.90;;;;;;5032134;28;20524;-74
2022/10/18 08:54:52;;;;;;;0.67;0.67;;;17.80;99.90;;;;;;5012754;28;20466;-73
2022/10/18 08:57:19;;;;;;;1.10;1.00;;;17.80;99.90;;;;;;5020127;28;20462;-74
2022/10/18 08:59:44;;;;;;;1.00;0.73;;;17.80;99.90;;;;;;5004086;28;20452;-73
2022/10/18 09:02:51;;;;;;;1.80;0.90;;;17.80;99.90;;;;;;4997607;28;20466;-74
2022/10/18 09:05:35;;;;;;;1.20;1.03;;;17.80;99.90;;;;;;5015000;28;20234;-74
2022/10/18 09:08:10;;;;;;;2.47;1.10;;;17.80;99.90;;;;;;5015580;28;20592;-74
2022/10/18 09:10:48;;;;;;;1.23;1.17;;;17.90;99.90;;;;;;5019067;28;20545;-74
2022/10/18 09:13:44;;;;;;;1.17;1.07;;;17.90;99.90;;;;;;5023667;28;20919;-74
2022/10/18 09:16:15;;;;;;;1.37;1.10;;;17.90;99.90;;;;;;5024602;28;20510;-73
2022/10/18 09:18:53;;;;;;;1.20;1.07;;;17.90;99.90;;;;;;5017636;28;20948;-73
2022/10/18 09:21:21;;;;;;;1.03;0.90;;;17.90;99.90;;;;;;5023388;28;20459;-72
2022/10/18 09:23:54;;;;;;;1.60;0.87;;;17.90;99.90;;;;;;4997161;28;20456;-74
2022/10/18 09:26:24;;;;;;;1.00;0.80;;;17.90;99.90;;;;;;4991258;28;20838;-73
2022/10/18 09:28:53;;;;;;;0.73;0.73;;;17.90;99.90;;;;;;5015525;28;20475;-73
2022/10/18 09:31:51;;;;;;;0.60;0.50;;;17.90;99.90;;;;;;5006781;28;20509;-74
2022/10/18 09:34:35;;;;;;;0.60;0.60;;;17.90;99.90;;;;;;5013342;28;20498;-73
2022/10/18 09:37:01;;;;;;;0.67;0.67;;;17.90;99.90;;;;;;5020369;28;20451;-74
2022/10/18 09:39:31;;;;;;;0.70;0.70;;;18.00;99.90;;;;;;5017727;28;21059;-71
2022/10/18 09:42:27;;;;;;;0.83;0.70;;;18.00;99.90;;;;;;5013962;28;20451;-74
2022/10/18 09:44:55;;;;;;;0.70;0.70;;;18.00;99.90;;;;;;5021964;28;20447;-73
2022/10/18 09:47:40;;;;;;;0.60;0.60;;;18.00;99.90;;;;;;5012044;28;20462;-73
2022/10/18 09:50:42;;;;;;;0.50;0.50;;;18.00;99.90;;;;;;5028219;28;20452;-74
2022/10/18 09:53:16;;;;;;;0.60;0.60;;;18.00;99.90;;;;;;5006837;28;20490;-73
2022/10/18 09:56:05;;;;;;;0.70;0.70;;;18.10;99.90;;;;;;5028118;28;20458;-72
2022/10/18 09:58:42;;;;;;;0.80;0.63;;;18.10;99.90;;;;;;5013860;28;20451;-75
2022/10/18 10:01:11;;;;;;;0.60;0.60;;;18.10;99.90;;;;;;4992743;28;20460;-74
2022/10/18 10:03:37;;;;;;;0.87;0.73;;;18.10;99.90;;;;;;4997259;28;20443;-74
2022/10/18 10:06:24;;;;;;;0.70;0.70;;;18.20;99.90;;;;;;4997998;28;20541;-73
2022/10/18 10:08:54;;;;;;;0.77;0.60;;;18.20;99.90;;;;;;4990063;28;20987;-74
2022/10/18 10:11:46;;;;;;;1.37;0.60;;;18.30;99.90;;;;;;5019891;28;20459;-74
2022/10/18 10:14:25;;;;;;;0.70;0.60;;;18.30;99.90;;;;;;5014910;28;20444;-74
2022/10/18 10:17:04;;;;;;;0.50;0.50;;;18.30;99.90;;;;;;4996948;28;21010;-73
2022/10/18 10:19:53;;;;;;;0.80;0.80;;;18.30;99.90;;;;;;5004742;28;20483;-73
2022/10/18 10:22:26;;;;;;;0.50;0.50;;;18.30;99.90;;;;;;5030991;28;20485;-74
2022/10/18 10:24:53;;;;;;;0.57;0.57;;;18.40;99.90;;;;;;5003911;28;20456;-75
2022/10/18 10:27:21;;;;;;;0.70;0.70;;;18.40;99.90;;;;;;5017565;28;20950;-74
2022/10/18 10:29:46;;;;;;;0.57;0.57;;;18.40;99.90;;;;;;5015096;28;20906;-74
2022/10/18 10:32:15;;;;;;;1.40;0.77;;;18.40;99.90;;;;;;5018562;28;20485;-74
2022/10/18 10:34:41;;;;;;;1.00;0.90;;;18.50;99.90;;;;;;5011754;28;20225;-74
2022/10/18 10:37:22;;;;;;;0.90;0.80;;;18.50;99.90;;;;;;5004261;28;20447;-74
2022/10/18 10:40:12;;;;;;;6.10;1.23;;;18.50;99.90;;;;;;5015984;28;20455;-74
2022/10/18 10:42:54;;;;;;;0.70;0.70;;;18.60;99.90;;;;;;4994526;28;20444;-74
2022/10/18 10:45:22;;;;;;;0.80;0.80;;;18.60;99.90;;;;;;5001301;28;20458;-74
2022/10/18 10:47:49;;;;;;;0.80;0.80;;;18.60;99.90;;;;;;5017902;28;20530;-74
2022/10/18 10:50:26;;;;;;;0.90;0.90;;;18.70;99.90;;;;;;5011744;28;20553;-74
2022/10/18 10:52:53;;;;;;;0.83;0.83;;;18.70;99.90;;;;;;5015676;28;20467;-74
2022/10/18 10:55:24;;;;;;;1.00;0.70;;;18.70;99.90;;;;;;5018767;28;20441;-73
2022/10/18 10:57:51;;;;;;;0.97;0.93;;;18.70;99.90;;;;;;5016961;28;20476;-74
2022/10/18 11:00:39;;;;;;;0.60;0.60;;;18.70;99.90;;;;;;5016066;28;20450;-74
2022/10/18 11:03:25;;;;;;;0.70;0.70;;;18.70;99.90;;;;;;5016656;28;20459;-73
2022/10/18 11:05:56;;;;;;;0.70;0.60;;;18.70;99.90;;;;;;5010373;28;20463;-73
2022/10/18 11:08:30;;;;;;;1.90;0.67;;;18.80;99.90;;;;;;4998093;28;20892;-74
2022/10/18 11:11:26;;;;;;;0.63;0.63;;;18.80;99.90;;;;;;5020119;28;20453;-73
2022/10/18 11:14:20;;;;;;;0.70;0.60;;;18.80;99.90;;;;;;4998312;28;20565;-73
2022/10/18 11:16:53;;;;;;;1.00;0.97;;;18.90;99.90;;;;;;5011744;28;20451;-74
2022/10/18 11:19:57;;;;;;;0.70;0.70;;;18.90;99.90;;;;;;5002814;28;20467;-73
2022/10/18 11:22:26;;;;;;;0.90;0.90;;;19.00;99.90;;;;;;4981948;28;20455;-74
2022/10/18 11:24:52;;;;;;;0.60;0.57;;;19.00;99.90;;;;;;4998950;28;20454;-74
2022/10/18 11:27:26;;;;;;;0.73;0.73;;;19.00;99.90;;;;;;5000307;28;20462;-74
2022/10/18 11:30:14;;;;;;;1.00;0.87;;;19.00;99.90;;;;;;5013716;28;20262;-74
2022/10/18 11:32:52;;;;;;;0.53;0.53;;;19.00;99.90;;;;;;5033449;28;20537;-73
2022/10/18 11:35:21;;;;;;;0.57;0.57;;;19.10;99.90;;;;;;5018900;28;20481;-74
2022/10/18 11:38:05;;;;;;;0.97;0.70;;;19.10;99.90;;;;;;5018236;28;20493;-74
2022/10/18 11:40:53;;;;;;;0.80;0.50;;;19.20;99.90;;;;;;5023445;28;20527;-72
2022/10/18 11:43:45;;;;;;;0.77;0.67;;;19.30;99.90;;;;;;4998890;28;20466;-73
2022/10/18 11:46:19;;;;;;;0.83;0.83;;;19.50;99.90;;;;;;5009530;28;20569;-74
2022/10/18 11:48:48;;;;;;;1.03;0.90;;;19.60;99.90;;;;;;4997052;28;20959;-72
2022/10/18 11:51:55;;;;;;;0.80;0.80;;;19.70;99.90;;;;;;5020089;28;20567;-74
2022/10/18 11:54:20;;;;;;;0.77;0.77;;;19.70;99.90;;;;;;5007970;28;20529;-72
2022/10/18 11:57:04;;;;;;;1.80;0.70;;;19.70;99.90;;;;;;5000930;28;20574;-74
2022/10/18 11:59:55;;;;;;;0.90;0.90;;;19.80;99.90;;;;;;5018567;28;20712;-73
2022/10/18 12:02:41;;;;;;;0.70;0.70;;;19.80;99.90;;;;;;5026760;28;20439;-73
2022/10/18 12:05:08;;;;;;;0.60;0.60;;;19.80;99.90;;;;;;5017893;28;20853;-75
2022/10/18 12:07:40;;;;;;;0.70;0.70;;;19.80;99.90;;;;;;5021689;28;20470;-72
2022/10/18 12:10:14;;;;;;;1.20;0.83;;;19.80;99.90;;;;;;5019940;28;20446;-74
2022/10/18 12:12:52;;;;;;;1.53;0.80;;;19.80;99.90;;;;;;5004711;28;20971;-73
2022/10/18 12:15:23;;;;;;;2.93;0.80;;;19.90;99.90;;;;;;5018793;28;20454;-74
2022/10/18 12:17:53;;;;;;;0.77;0.77;;;19.80;99.90;;;;;;5041771;28;20553;-74
2022/10/18 12:20:34;;;;;;;0.97;0.90;;;19.80;99.90;;;;;;5013086;28;20452;-74
2022/10/18 12:23:02;;;;;;;0.70;0.70;;;19.80;99.90;;;;;;5003829;28;20455;-74
2022/10/18 12:25:32;;;;;;;0.90;0.90;;;19.70;99.90;;;;;;5023854;28;20466;-74
2022/10/18 12:28:40;;;;;;;1.63;0.83;;;19.80;99.90;;;;;;5020319;28;20523;-74
2022/10/18 12:31:23;;;;;;;0.90;0.90;;;19.80;99.90;;;;;;5019824;28;20456;-72
2022/10/18 12:34:03;;;;;;;1.03;0.93;;;19.90;99.90;;;;;;4983495;28;20447;-74
2022/10/18 12:36:46;;;;;;;4.20;0.87;;;19.80;99.90;;;;;;5010863;28;20986;-73
2022/10/18 12:39:24;;;;;;;0.90;0.90;;;19.90;99.90;;;;;;5019746;28;20464;-73
2022/10/18 12:41:54;;;;;;;1.30;1.20;;;19.90;99.90;;;;;;5013396;28;20451;-74
2022/10/18 12:44:32;;;;;;;1.40;1.30;;;19.90;99.90;;;;;;5024035;28;20461;-74
2022/10/18 12:47:00;;;;;;;2.97;1.40;;;19.90;99.90;;;;;;5023745;28;20570;-74
2022/10/18 12:49:31;;;;;;;1.33;0.80;;;19.90;99.90;;;;;;5018348;28;20509;-74
2022/10/18 12:51:59;;;;;;;1.03;0.97;;;19.90;99.90;;;;;;5022160;28;20463;-74
2022/10/18 12:54:35;;;;;;;1.13;0.97;;;19.90;99.90;;;;;;5021348;28;20603;-74
2022/10/18 12:57:21;;;;;;;0.77;0.77;;;19.90;99.90;;;;;;4994619;28;20834;-74
2022/10/18 12:59:46;;;;;;;2.93;1.00;;;20.00;99.90;;;;;;5017722;28;20448;-74
2022/10/18 13:02:21;;;;;;;1.10;1.10;;;20.00;99.90;;;;;;5026561;28;20478;-71
2022/10/18 13:04:47;;;;;;;1.27;1.10;;;20.00;99.90;;;;;;5005323;28;20271;-75
2022/10/18 13:07:18;;;;;;;0.90;0.90;;;19.90;99.90;;;;;;5021078;28;20471;-73